Time;durP1;ratioP1;P1;durP2;ratioP2;P2;SDS_P1;SDS_P2;PMS_P1;PMS_P2;Temp;Humidity;BMP_temperature;BMP_pressure;BME280_temperature;BME280_humidity;BME280_pressure;Samples;Min_cycle;Max_cycle;Signal;HPM_P1;HPM_P2
2023/08/28 00:01:52;;;;;;;2.08;1.52;;;18.00;99.90;;;;;;5009592;28;20205;-74
2023/08/28 00:04:18;;;;;;;5.80;3.00;;;18.00;99.90;;;;;;4991537;28;20213;-75
2023/08/28 00:06:43;;;;;;;5.47;3.55;;;17.90;99.90;;;;;;5003852;28;20263;-74
2023/08/28 00:09:09;;;;;;;2.85;2.00;;;17.90;99.90;;;;;;5010093;28;20205;-75
2023/08/28 00:11:34;;;;;;;2.42;1.50;;;17.90;99.90;;;;;;4990793;28;20831;-75
2023/08/28 00:14:00;;;;;;;1.85;1.30;;;17.90;99.90;;;;;;5009602;28;20223;-75
2023/08/28 00:16:25;;;;;;;2.83;1.50;;;17.90;99.90;;;;;;4989503;28;20208;-76
2023/08/28 00:18:51;;;;;;;2.50;1.20;;;17.80;99.90;;;;;;5011046;28;20206;-74
2023/08/28 00:21:17;;;;;;;1.45;1.10;;;17.80;99.90;;;;;;4994660;28;20271;-75
2023/08/28 00:23:42;;;;;;;1.88;1.20;;;17.80;99.90;;;;;;5008539;28;20271;-74
2023/08/28 00:26:08;;;;;;;1.20;1.10;;;17.70;99.90;;;;;;5010810;28;20209;-75
2023/08/28 00:28:33;;;;;;;1.73;1.38;;;17.70;99.90;;;;;;5009093;28;20288;-76
2023/08/28 00:30:59;;;;;;;1.73;1.20;;;17.70;99.90;;;;;;4991192;28;20204;-75
2023/08/28 00:33:25;;;;;;;2.08;1.30;;;17.70;99.90;;;;;;5007228;28;20212;-75
2023/08/28 00:35:51;;;;;;;2.65;1.23;;;17.60;99.90;;;;;;5005601;28;20588;-77
2023/08/28 00:38:17;;;;;;;1.80;1.40;;;17.60;99.90;;;;;;5006679;28;20212;-77
2023/08/28 00:40:43;;;;;;;3.40;2.25;;;17.50;99.90;;;;;;5003310;28;20646;-74
2023/08/28 00:43:08;;;;;;;2.83;1.38;;;17.50;99.90;;;;;;5006227;28;20181;-75
2023/08/28 00:45:39;;;;;;;2.25;1.85;;;17.50;99.90;;;;;;4992203;28;20195;-74
2023/08/28 00:48:05;;;;;;;1.75;1.35;;;17.40;99.90;;;;;;5009220;28;20216;-75
2023/08/28 00:50:31;;;;;;;5.15;3.42;;;17.40;99.90;;;;;;4992255;28;20296;-76
2023/08/28 00:52:57;;;;;;;1.58;1.27;;;17.40;99.90;;;;;;5010690;28;20216;-75
2023/08/28 00:55:23;;;;;;;2.42;1.20;;;17.30;99.90;;;;;;5012393;28;20201;-76
2023/08/28 00:57:49;;;;;;;1.85;1.30;;;17.20;99.90;;;;;;5011960;28;20173;-74
2023/08/28 01:00:15;;;;;;;3.80;1.25;;;17.10;99.90;;;;;;5010088;28;20722;-75
2023/08/28 01:02:41;;;;;;;1.52;1.25;;;17.10;99.90;;;;;;5009549;28;20211;-76
2023/08/28 01:05:08;;;;;;;2.38;1.20;;;17.00;99.90;;;;;;4995655;28;20212;-76
2023/08/28 01:07:46;;;;;;;1.85;1.00;;;16.90;99.90;;;;;;4988908;28;20419;-76
2023/08/28 01:10:22;;;;;;;1.38;1.25;;;16.90;99.90;;;;;;5007175;28;20177;-75
2023/08/28 01:12:59;;;;;;;2.38;1.33;;;16.90;99.90;;;;;;4986942;28;20178;-74
2023/08/28 01:15:26;;;;;;;1.52;1.20;;;16.90;99.90;;;;;;4988754;28;20262;-76
2023/08/28 01:17:57;;;;;;;2.28;1.20;;;16.80;99.90;;;;;;5003144;28;20201;-75
2023/08/28 01:20:24;;;;;;;1.50;1.23;;;16.80;99.90;;;;;;4987816;28;20288;-75
2023/08/28 01:23:06;;;;;;;2.08;1.42;;;16.90;99.90;;;;;;4994419;28;20326;-75
2023/08/28 01:25:32;;;;;;;2.10;1.40;;;16.90;99.90;;;;;;4995143;28;20237;-75
2023/08/28 01:27:59;;;;;;;1.55;1.20;;;16.90;99.90;;;;;;5011128;28;20181;-75
2023/08/28 01:30:25;;;;;;;1.77;1.25;;;16.90;99.90;;;;;;5012164;28;20881;-75
2023/08/28 01:32:50;;;;;;;1.85;1.15;;;16.90;99.90;;;;;;5009032;28;20250;-75
2023/08/28 01:35:21;;;;;;;4.68;1.30;;;16.80;99.90;;;;;;4995519;28;20691;-75
2023/08/28 01:38:07;;;;;;;1.92;1.33;;;16.70;99.90;;;;;;5008989;28;20224;-75
2023/08/28 01:41:01;;;;;;;2.53;1.40;;;16.70;99.90;;;;;;5005168;28;20212;-75
2023/08/28 01:43:39;;;;;;;2.55;1.45;;;16.70;99.90;;;;;;5006692;28;20611;-75
2023/08/28 01:46:06;;;;;;;2.45;1.20;;;16.60;99.90;;;;;;5006534;28;20193;-76
2023/08/28 01:48:35;;;;;;;2.13;1.27;;;16.60;99.90;;;;;;4992441;28;20221;-76
2023/08/28 01:51:01;;;;;;;1.83;1.27;;;16.60;99.90;;;;;;5005870;28;20259;-75
2023/08/28 01:53:27;;;;;;;1.35;1.23;;;16.60;99.90;;;;;;5004091;28;20236;-75
2023/08/28 01:55:56;;;;;;;2.60;1.20;;;16.60;99.90;;;;;;4986433;28;20288;-75
2023/08/28 01:58:21;;;;;;;1.65;1.50;;;16.60;99.90;;;;;;4990638;28;20315;-75
2023/08/28 02:00:47;;;;;;;2.72;1.50;;;16.50;99.90;;;;;;5012026;28;20920;-73
2023/08/28 02:03:12;;;;;;;1.83;1.15;;;16.50;99.90;;;;;;5010956;28;20197;-75
2023/08/28 02:05:38;;;;;;;1.52;1.38;;;16.50;99.90;;;;;;4993123;28;20221;-75
2023/08/28 02:08:04;;;;;;;1.25;1.15;;;16.40;99.90;;;;;;4991227;28;20701;-73
2023/08/28 02:10:30;;;;;;;5.85;1.40;;;16.40;99.90;;;;;;5009529;28;20234;-75
2023/08/28 02:12:56;;;;;;;3.28;1.25;;;16.40;99.90;;;;;;4999762;28;20636;-75
2023/08/28 02:15:21;;;;;;;2.17;1.70;;;16.40;99.90;;;;;;5007968;28;20263;-77
2023/08/28 02:17:47;;;;;;;2.55;1.60;;;16.30;99.90;;;;;;5005576;28;20201;-73
2023/08/28 02:20:12;;;;;;;2.15;1.35;;;16.30;99.90;;;;;;5009243;28;20215;-75
2023/08/28 02:22:38;;;;;;;4.15;1.50;;;16.30;99.90;;;;;;5004566;28;20217;-76
2023/08/28 02:25:05;;;;;;;2.28;1.52;;;16.20;99.90;;;;;;5004533;28;20185;-75
2023/08/28 02:27:31;;;;;;;2.50;1.65;;;16.20;99.90;;;;;;5004590;28;20243;-75
2023/08/28 02:29:57;;;;;;;2.83;1.30;;;16.20;99.90;;;;;;5009297;28;20216;-75
2023/08/28 02:32:23;;;;;;;1.65;1.30;;;16.20;99.90;;;;;;5008083;28;20205;-76
2023/08/28 02:34:49;;;;;;;1.58;1.33;;;16.20;99.90;;;;;;5004530;28;20295;-77
2023/08/28 02:37:15;;;;;;;2.15;1.23;;;16.00;99.90;;;;;;4993008;28;20275;-75
2023/08/28 02:39:40;;;;;;;2.13;1.27;;;16.10;99.90;;;;;;4994921;28;20317;-77
2023/08/28 02:42:06;;;;;;;1.33;1.10;;;16.10;99.90;;;;;;5008068;28;20228;-75
2023/08/28 02:44:32;;;;;;;1.40;1.30;;;16.10;99.90;;;;;;5009775;28;20734;-74
2023/08/28 02:46:58;;;;;;;4.15;1.20;;;16.10;99.90;;;;;;5007022;28;20209;-74
2023/08/28 02:49:23;;;;;;;1.70;1.27;;;16.10;99.90;;;;;;5010054;28;20526;-74
2023/08/28 02:51:49;;;;;;;2.00;1.48;;;16.10;99.90;;;;;;4990264;28;20189;-74
2023/08/28 02:54:14;;;;;;;2.17;1.42;;;16.10;99.90;;;;;;5006743;28;20217;-75
2023/08/28 02:56:40;;;;;;;3.72;1.45;;;16.10;99.90;;;;;;4988704;28;20205;-74
2023/08/28 02:59:06;;;;;;;2.08;1.42;;;16.00;99.90;;;;;;5005652;28;20244;-75
2023/08/28 03:01:35;;;;;;;1.95;1.35;;;16.10;99.90;;;;;;5010860;28;20726;-74
2023/08/28 03:04:04;;;;;;;3.08;1.63;;;16.00;99.90;;;;;;5002666;28;20213;-77
2023/08/28 03:06:30;;;;;;;4.13;1.60;;;16.00;99.90;;;;;;5007452;28;20299;-76
2023/08/28 03:08:56;;;;;;;2.45;1.23;;;16.00;99.90;;;;;;4982271;28;20696;-75
2023/08/28 03:11:21;;;;;;;3.33;1.60;;;15.90;99.90;;;;;;5005294;28;20213;-76
2023/08/28 03:13:47;;;;;;;3.22;1.60;;;15.90;99.90;;;;;;5014153;28;20216;-74
2023/08/28 03:16:12;;;;;;;1.90;1.35;;;15.90;99.90;;;;;;4993864;28;20174;-76
2023/08/28 03:18:39;;;;;;;2.88;1.63;;;15.90;99.90;;;;;;5011166;28;20192;-77
2023/08/28 03:21:05;;;;;;;2.60;1.80;;;15.90;99.90;;;;;;4989573;28;20324;-76
2023/08/28 03:23:30;;;;;;;2.28;1.80;;;15.80;99.90;;;;;;5008253;28;20251;-77
2023/08/28 03:25:56;;;;;;;2.38;1.75;;;15.80;99.90;;;;;;5008554;28;20204;-73
2023/08/28 03:28:22;;;;;;;3.05;1.80;;;15.90;99.90;;;;;;5007083;28;20176;-78
2023/08/28 03:30:47;;;;;;;2.83;1.70;;;15.90;99.90;;;;;;4990158;28;20250;-75
2023/08/28 03:33:13;;;;;;;2.83;1.70;;;15.80;99.90;;;;;;4986834;28;20202;-77
2023/08/28 03:35:39;;;;;;;1.85;1.63;;;15.90;99.90;;;;;;5004263;28;20220;-77
2023/08/28 03:38:05;;;;;;;2.70;2.00;;;15.90;99.90;;;;;;5002065;28;20413;-76
2023/08/28 03:40:31;;;;;;;1.85;1.63;;;15.90;99.90;;;;;;4986810;28;20205;-76
2023/08/28 03:42:57;;;;;;;3.10;1.85;;;15.80;99.90;;;;;;5006973;28;20179;-76
2023/08/28 03:45:22;;;;;;;2.10;1.85;;;15.70;99.90;;;;;;5002778;28;20208;-76
2023/08/28 03:47:48;;;;;;;2.72;1.92;;;15.70;99.90;;;;;;4984695;28;20200;-76
2023/08/28 03:50:14;;;;;;;2.38;1.80;;;15.80;99.90;;;;;;5009752;28;20208;-77
2023/08/28 03:52:39;;;;;;;2.17;1.80;;;15.70;99.90;;;;;;5008986;28;20696;-77
2023/08/28 03:55:05;;;;;;;3.50;2.30;;;15.70;99.90;;;;;;4991190;28;20636;-76
2023/08/28 03:57:34;;;;;;;3.97;2.05;;;15.80;99.90;;;;;;5008394;28;20204;-76
2023/08/28 03:59:59;;;;;;;3.58;2.05;;;15.80;99.90;;;;;;5006051;28;20242;-73
2023/08/28 04:02:25;;;;;;;4.18;2.00;;;15.80;99.90;;;;;;5006625;28;20240;-77
2023/08/28 04:04:50;;;;;;;4.53;2.03;;;15.80;99.90;;;;;;5005637;28;20259;-75
2023/08/28 04:07:23;;;;;;;3.35;2.28;;;15.80;99.90;;;;;;5004480;28;20212;-76
2023/08/28 04:09:49;;;;;;;5.57;2.50;;;15.70;99.90;;;;;;5004902;28;20169;-75
2023/08/28 04:12:14;;;;;;;5.05;2.80;;;15.70;99.90;;;;;;5005621;28;20224;-75
2023/08/28 04:14:40;;;;;;;4.03;2.20;;;15.60;99.90;;;;;;4988453;28;20217;-76
2023/08/28 04:17:05;;;;;;;6.70;2.70;;;15.70;99.90;;;;;;5003602;28;20217;-76
2023/08/28 04:19:31;;;;;;;4.50;2.60;;;15.70;99.90;;;;;;5003380;28;20216;-76
2023/08/28 04:21:57;;;;;;;3.25;2.40;;;15.80;99.90;;;;;;4983188;28;20365;-76
2023/08/28 04:24:22;;;;;;;2.50;2.17;;;15.80;99.90;;;;;;5002304;28;20228;-76
2023/08/28 04:26:48;;;;;;;3.10;2.13;;;15.90;99.90;;;;;;4992369;28;20228;-75
2023/08/28 04:29:13;;;;;;;4.97;2.88;;;16.00;99.90;;;;;;5009086;28;20738;-76
2023/08/28 04:31:39;;;;;;;3.80;2.50;;;16.10;99.90;;;;;;4992004;28;20208;-77
2023/08/28 04:34:05;;;;;;;3.60;2.65;;;16.20;99.90;;;;;;4989710;28;20556;-76
2023/08/28 04:36:30;;;;;;;2.88;2.50;;;16.20;99.90;;;;;;5007600;28;20287;-76
2023/08/28 04:38:56;;;;;;;5.13;2.83;;;16.40;99.90;;;;;;5006427;28;20228;-77
2023/08/28 04:41:21;;;;;;;3.33;2.40;;;16.60;99.90;;;;;;5005343;28;20300;-76
2023/08/28 04:43:47;;;;;;;4.45;2.72;;;16.80;99.90;;;;;;4987218;28;20626;-74
2023/08/28 04:46:13;;;;;;;4.50;2.58;;;16.80;99.90;;;;;;5007048;28;20567;-76
2023/08/28 04:48:38;;;;;;;3.45;2.60;;;17.70;99.90;;;;;;4984392;28;20188;-77
2023/08/28 04:51:04;;;;;;;3.92;2.50;;;19.20;99.90;;;;;;5006297;28;20197;-73
2023/08/28 04:53:30;;;;;;;2.58;2.30;;;20.80;99.90;;;;;;4992007;28;20585;-77
2023/08/28 04:55:56;;;;;;;3.80;2.50;;;21.60;99.90;;;;;;5000619;28;20274;-77
2023/08/28 04:58:21;;;;;;;3.38;2.30;;;22.40;99.90;;;;;;4983475;28;20637;-76
2023/08/28 05:00:47;;;;;;;2.70;2.10;;;23.00;99.90;;;;;;4988899;28;20196;-76
2023/08/28 05:03:13;;;;;;;2.38;2.15;;;22.50;99.90;;;;;;5008775;28;20205;-75
2023/08/28 05:05:38;;;;;;;5.35;2.53;;;21.90;99.90;;;;;;5012107;28;20216;-76
2023/08/28 05:08:05;;;;;;;4.60;2.35;;;21.70;99.90;;;;;;5010895;28;20302;-76
2023/08/28 05:10:31;;;;;;;3.65;2.40;;;22.00;99.90;;;;;;5012492;28;20209;-75
2023/08/28 05:12:57;;;;;;;3.53;2.50;;;21.20;99.90;;;;;;4993088;28;20263;-75
2023/08/28 05:15:22;;;;;;;4.35;2.58;;;20.30;99.90;;;;;;4994221;28;20217;-76
2023/08/28 05:17:48;;;;;;;3.03;2.30;;;19.80;99.90;;;;;;5011049;28;20205;-73
2023/08/28 05:20:14;;;;;;;4.50;3.30;;;19.60;99.90;;;;;;5006569;28;20210;-75
2023/08/28 05:22:40;;;;;;;3.15;2.17;;;20.20;99.90;;;;;;4994360;28;20224;-75
2023/08/28 05:25:06;;;;;;;5.13;3.17;;;20.60;99.90;;;;;;5008542;28;20214;-75
2023/08/28 05:27:31;;;;;;;5.15;2.95;;;21.00;99.90;;;;;;4995205;28;20247;-75
2023/08/28 05:29:59;;;;;;;4.32;2.50;;;22.00;99.90;;;;;;5007694;28;20209;-76
2023/08/28 05:32:24;;;;;;;4.25;2.50;;;22.70;99.90;;;;;;5005010;28;20217;-75
2023/08/28 05:34:50;;;;;;;2.22;2.00;;;23.10;99.90;;;;;;5003750;28;20596;-75
2023/08/28 05:37:15;;;;;;;2.60;2.25;;;24.00;99.90;;;;;;5002079;28;20193;-75
2023/08/28 05:39:43;;;;;;;2.33;2.13;;;25.10;99.90;;;;;;4995624;28;20189;-76
2023/08/28 05:42:09;;;;;;;2.85;2.13;;;25.10;99.90;;;;;;4993436;28;20236;-74
2023/08/28 05:44:34;;;;;;;2.88;2.10;;;24.40;99.90;;;;;;5010816;28;20703;-75
2023/08/28 05:47:00;;;;;;;4.20;2.05;;;23.90;99.90;;;;;;4993149;28;20228;-76
2023/08/28 05:49:26;;;;;;;3.17;2.17;;;23.80;99.90;;;;;;5008792;28;20221;-75
2023/08/28 05:51:52;;;;;;;5.35;2.55;;;23.60;99.90;;;;;;5011254;28;20200;-76
2023/08/28 05:54:18;;;;;;;5.22;2.28;;;22.80;99.90;;;;;;5006887;28;20708;-75
2023/08/28 05:56:44;;;;;;;4.75;2.20;;;22.30;99.90;;;;;;5008460;28;20221;-75
2023/08/28 05:59:09;;;;;;;3.58;2.50;;;22.30;99.90;;;;;;4987895;28;20217;-74
2023/08/28 06:01:35;;;;;;;5.65;2.50;;;22.00;99.90;;;;;;4990714;28;20224;-76
2023/08/28 06:04:02;;;;;;;3.25;2.35;;;22.10;99.90;;;;;;5005460;28;20169;-74
2023/08/28 06:06:28;;;;;;;4.95;2.20;;;22.20;99.90;;;;;;5008141;28;20673;-75
2023/08/28 06:08:54;;;;;;;4.15;2.30;;;23.50;99.90;;;;;;5003833;28;20209;-75
2023/08/28 06:11:20;;;;;;;3.60;2.38;;;24.30;99.90;;;;;;5004384;28;20214;-75
2023/08/28 06:13:45;;;;;;;3.47;1.85;;;24.00;99.90;;;;;;5008556;28;20236;-76
2023/08/28 06:16:11;;;;;;;3.38;2.28;;;23.80;99.90;;;;;;4991627;28;20212;-74
2023/08/28 06:18:37;;;;;;;4.55;2.35;;;23.30;99.90;;;;;;4993990;28;20849;-76
2023/08/28 06:21:02;;;;;;;3.15;2.42;;;23.50;99.90;;;;;;5010264;28;20593;-75
2023/08/28 06:23:29;;;;;;;3.38;2.25;;;23.50;99.90;;;;;;5009881;28;20264;-75
2023/08/28 06:25:56;;;;;;;2.83;2.38;;;23.10;99.90;;;;;;5009526;28;20209;-75
2023/08/28 06:28:21;;;;;;;3.38;2.30;;;22.50;99.90;;;;;;4988678;28;20190;-75
2023/08/28 06:30:50;;;;;;;4.40;2.17;;;21.40;99.90;;;;;;5009473;28;20551;-74
2023/08/28 06:33:15;;;;;;;3.10;1.88;;;23.00;99.90;;;;;;5005364;28;20228;-75
2023/08/28 06:35:41;;;;;;;3.80;1.98;;;23.50;99.90;;;;;;5008778;28;20229;-75
2023/08/28 06:38:07;;;;;;;3.05;2.17;;;24.00;99.90;;;;;;5004680;28;20205;-76
2023/08/28 06:40:32;;;;;;;3.45;2.08;;;24.80;99.90;;;;;;4992085;28;20232;-75
2023/08/28 06:42:58;;;;;;;4.22;2.10;;;25.20;99.90;;;;;;5004456;28;20171;-76
2023/08/28 06:45:24;;;;;;;3.92;2.03;;;26.50;99.90;;;;;;5006039;28;20204;-76
2023/08/28 06:47:49;;;;;;;3.55;1.85;;;27.10;99.90;;;;;;5003994;28;20222;-75
2023/08/28 06:50:15;;;;;;;2.90;1.83;;;27.70;99.90;;;;;;5005466;28;20231;-76
2023/08/28 06:52:41;;;;;;;2.85;1.88;;;27.60;99.90;;;;;;5010748;28;20220;-76
2023/08/28 06:55:07;;;;;;;2.65;2.17;;;29.10;99.90;;;;;;5009059;28;20201;-76
2023/08/28 06:57:33;;;;;;;3.70;1.63;;;29.30;99.90;;;;;;5010426;28;20187;-77
2023/08/28 06:59:58;;;;;;;2.55;1.60;;;30.00;99.90;;;;;;5011727;28;20718;-76
2023/08/28 07:02:24;;;;;;;3.25;1.98;;;30.90;99.90;;;;;;4991876;28;20224;-76
2023/08/28 07:04:50;;;;;;;1.85;1.50;;;31.50;99.90;;;;;;5011230;28;20208;-73
2023/08/28 07:07:18;;;;;;;2.97;1.60;;;32.10;98.10;;;;;;5007942;28;20224;-74
2023/08/28 07:09:44;;;;;;;6.05;1.77;;;31.20;96.80;;;;;;5004772;28;20196;-74
2023/08/28 07:12:10;;;;;;;2.38;1.60;;;32.10;95.60;;;;;;5005234;28;20239;-74
2023/08/28 07:14:35;;;;;;;2.83;1.33;;;32.90;94.20;;;;;;4987030;28;20217;-77
2023/08/28 07:17:02;;;;;;;3.20;1.83;;;32.70;93.30;;;;;;5005206;28;20201;-74
2023/08/28 07:19:28;;;;;;;2.75;1.63;;;32.90;92.10;;;;;;5008101;28;20236;-74
2023/08/28 07:21:54;;;;;;;1.77;1.40;;;32.20;92.70;;;;;;5008131;28;20277;-74
2023/08/28 07:24:20;;;;;;;2.65;1.30;;;32.90;91.80;;;;;;5008544;28;20208;-72
2023/08/28 07:26:46;;;;;;;3.50;1.65;;;32.40;91.70;;;;;;4989750;28;20215;-74
2023/08/28 07:29:11;;;;;;;3.50;1.60;;;31.60;92.10;;;;;;5009372;28;20211;-74
2023/08/28 07:31:37;;;;;;;3.42;1.20;;;30.90;93.20;;;;;;4989031;28;20304;-74
2023/08/28 07:34:04;;;;;;;3.28;1.70;;;30.60;93.00;;;;;;5009476;28;20574;-76
2023/08/28 07:36:30;;;;;;;4.40;2.65;;;29.70;93.70;;;;;;5006767;28;20213;-76
2023/08/28 07:38:56;;;;;;;3.92;3.53;;;28.70;95.50;;;;;;5008406;28;20599;-76
2023/08/28 07:41:21;;;;;;;6.68;3.33;;;27.70;96.60;;;;;;4985955;28;20221;-74
2023/08/28 07:43:47;;;;;;;7.75;2.75;;;26.80;98.50;;;;;;5009349;28;20209;-74
2023/08/28 07:46:13;;;;;;;2.78;2.33;;;26.50;99.80;;;;;;4987975;28;20248;-76
2023/08/28 07:48:39;;;;;;;2.60;1.30;;;26.30;99.90;;;;;;5006944;28;20597;-76
2023/08/28 07:51:05;;;;;;;2.85;1.70;;;25.70;99.90;;;;;;4989134;28;20544;-76
2023/08/28 07:53:31;;;;;;;3.15;1.73;;;25.00;99.90;;;;;;5007575;28;20292;-76
2023/08/28 07:55:56;;;;;;;2.88;1.85;;;24.20;99.90;;;;;;4987394;28;20309;-76
2023/08/28 07:58:22;;;;;;;3.88;2.00;;;23.90;99.90;;;;;;5006091;28;20198;-72
2023/08/28 08:00:48;;;;;;;2.72;1.60;;;23.50;99.90;;;;;;5005442;28;20181;-75
2023/08/28 08:03:13;;;;;;;2.92;1.30;;;23.20;99.90;;;;;;5006496;28;20654;-76
2023/08/28 08:05:39;;;;;;;4.07;2.83;;;23.00;99.90;;;;;;4986681;28;20216;-77
2023/08/28 08:08:05;;;;;;;5.22;1.98;;;22.80;99.90;;;;;;4989784;28;20209;-77
2023/08/28 08:10:32;;;;;;;6.82;2.10;;;22.50;99.90;;;;;;5008400;28;20216;-77
2023/08/28 08:12:57;;;;;;;3.55;2.03;;;22.60;99.90;;;;;;5010650;28;20175;-74
2023/08/28 08:15:23;;;;;;;4.72;3.38;;;23.10;99.90;;;;;;5009708;28;20209;-75
2023/08/28 08:17:48;;;;;;;2.55;1.42;;;23.40;99.90;;;;;;5010012;28;20671;-75
2023/08/28 08:20:15;;;;;;;2.42;1.60;;;23.90;99.90;;;;;;5010281;28;20681;-75
2023/08/28 08:22:42;;;;;;;2.30;1.50;;;24.80;99.90;;;;;;4990268;28;20212;-74
2023/08/28 08:25:10;;;;;;;2.40;1.50;;;25.20;99.90;;;;;;4992049;28;20191;-75
2023/08/28 08:27:37;;;;;;;7.22;4.35;;;25.70;99.90;;;;;;5007727;28;20190;-75
2023/08/28 08:30:04;;;;;;;6.00;2.63;;;26.40;99.90;;;;;;5006229;28;20217;-75
2023/08/28 08:32:30;;;;;;;4.32;2.00;;;26.70;99.90;;;;;;4983384;28;20214;-74
2023/08/28 08:34:58;;;;;;;4.53;1.80;;;27.10;99.90;;;;;;4992230;28;20749;-73
2023/08/28 08:37:25;;;;;;;2.53;1.63;;;27.40;99.90;;;;;;4981709;28;20177;-74
2023/08/28 08:39:51;;;;;;;1.73;1.25;;;28.20;99.90;;;;;;4994276;28;20188;-74
2023/08/28 08:42:17;;;;;;;3.47;1.95;;;28.60;99.90;;;;;;5009625;28;20209;-76
2023/08/28 08:44:43;;;;;;;3.03;2.03;;;28.60;99.90;;;;;;5012579;28;20259;-73
2023/08/28 08:47:09;;;;;;;3.90;1.30;;;28.40;99.90;;;;;;4996585;28;20634;-76
2023/08/28 08:49:40;;;;;;;1.45;1.23;;;28.10;99.90;;;;;;5010931;28;20213;-74
2023/08/28 08:52:08;;;;;;;2.83;2.00;;;27.60;99.90;;;;;;5009547;28;20209;-74
2023/08/28 08:54:41;;;;;;;2.95;0.98;;;27.10;99.90;;;;;;5008243;28;20231;-73
2023/08/28 08:57:26;;;;;;;2.83;1.55;;;27.00;99.90;;;;;;5012053;28;20213;-74
2023/08/28 08:59:53;;;;;;;1.83;1.13;;;26.40;99.90;;;;;;5009860;28;20208;-73
2023/08/28 09:02:19;;;;;;;1.90;1.00;;;25.90;99.90;;;;;;5007813;28;20229;-76
2023/08/28 09:04:45;;;;;;;2.22;1.20;;;25.30;99.90;;;;;;5007151;28;20265;-75
2023/08/28 09:07:11;;;;;;;2.53;2.10;;;24.80;99.90;;;;;;4990193;28;20180;-74
2023/08/28 09:09:38;;;;;;;2.33;1.30;;;24.20;99.90;;;;;;5005491;28;20216;-73
2023/08/28 09:12:04;;;;;;;4.30;3.53;;;23.80;99.90;;;;;;5006661;28;20210;-73
2023/08/28 09:14:31;;;;;;;4.80;2.50;;;23.50;99.90;;;;;;5002169;28;20217;-75
2023/08/28 09:16:57;;;;;;;3.83;1.17;;;23.20;99.90;;;;;;5005687;28;20204;-76
2023/08/28 09:19:23;;;;;;;2.35;1.50;;;23.10;99.90;;;;;;4991316;28;20192;-73
2023/08/28 09:21:49;;;;;;;5.15;1.30;;;22.80;99.90;;;;;;5012285;28;20709;-73
2023/08/28 09:24:21;;;;;;;3.67;1.27;;;22.60;99.90;;;;;;4991963;28;20244;-74
2023/08/28 09:26:53;;;;;;;2.65;1.40;;;22.20;99.90;;;;;;5003898;28;20675;-74
2023/08/28 09:29:23;;;;;;;3.70;1.23;;;22.20;99.90;;;;;;5007056;28;20217;-74
2023/08/28 09:31:51;;;;;;;2.35;1.27;;;21.90;99.90;;;;;;4998035;28;20213;-73
2023/08/28 09:34:20;;;;;;;1.67;1.05;;;21.70;99.90;;;;;;4999134;28;20237;-74
2023/08/28 09:36:46;;;;;;;2.45;1.10;;;21.30;99.90;;;;;;4983885;28;20181;-73
2023/08/28 09:39:12;;;;;;;3.17;1.25;;;21.50;99.90;;;;;;5000608;28;20276;-74
2023/08/28 09:41:47;;;;;;;3.28;1.00;;;21.50;99.90;;;;;;4998273;28;20780;-74
2023/08/28 09:44:15;;;;;;;3.65;1.17;;;21.70;99.90;;;;;;4999479;28;20217;-74
2023/08/28 09:46:45;;;;;;;3.42;1.05;;;21.60;99.90;;;;;;5000323;28;20225;-71
2023/08/28 09:49:13;;;;;;;1.80;1.10;;;21.50;99.90;;;;;;4999983;28;20181;-73
2023/08/28 09:51:43;;;;;;;1.65;1.35;;;21.80;99.90;;;;;;4984117;28;20722;-75
2023/08/28 09:54:10;;;;;;;2.38;0.90;;;21.60;99.90;;;;;;4998860;28;20225;-74
2023/08/28 09:56:37;;;;;;;3.08;1.10;;;21.70;99.90;;;;;;5002466;28;20221;-73
2023/08/28 09:59:03;;;;;;;3.72;1.27;;;21.90;99.90;;;;;;5004604;28;20255;-73
2023/08/28 10:01:36;;;;;;;4.40;1.60;;;22.10;99.90;;;;;;4987427;28;20623;-74
2023/08/28 10:04:07;;;;;;;3.55;1.13;;;22.00;99.90;;;;;;5003889;28;20205;-73
2023/08/28 10:06:35;;;;;;;2.45;0.90;;;21.90;99.90;;;;;;4989525;28;20216;-74
2023/08/28 10:09:04;;;;;;;2.55;0.95;;;21.90;99.90;;;;;;4989053;28;20223;-73
2023/08/28 10:11:35;;;;;;;1.83;1.05;;;21.70;99.90;;;;;;4999250;28;20715;-72
2023/08/28 10:14:03;;;;;;;1.40;1.13;;;21.80;99.90;;;;;;4992554;28;20829;-75
2023/08/28 10:16:33;;;;;;;2.28;0.90;;;21.70;99.90;;;;;;4999968;28;20288;-74
2023/08/28 10:19:15;;;;;;;4.68;1.73;;;21.80;99.90;;;;;;5003195;28;20212;-73
2023/08/28 10:21:42;;;;;;;4.22;1.73;;;22.10;99.90;;;;;;5001581;28;20308;-73
2023/08/28 10:24:09;;;;;;;3.20;1.83;;;22.20;99.90;;;;;;4992603;28;20715;-73
2023/08/28 10:26:35;;;;;;;2.50;1.08;;;22.30;99.90;;;;;;4999601;28;20248;-74
2023/08/28 10:29:03;;;;;;;2.22;1.30;;;22.30;99.90;;;;;;5001182;28;20748;-74
2023/08/28 10:31:30;;;;;;;2.30;1.40;;;22.30;99.90;;;;;;5005328;28;20233;-74
2023/08/28 10:33:56;;;;;;;5.35;1.20;;;22.60;99.90;;;;;;5002978;28;20181;-73
2023/08/28 10:36:24;;;;;;;1.30;1.08;;;22.20;99.90;;;;;;4988619;28;20233;-74
2023/08/28 10:38:52;;;;;;;1.85;1.08;;;22.50;99.90;;;;;;5002023;28;20209;-72
2023/08/28 10:41:19;;;;;;;2.60;1.30;;;22.60;99.90;;;;;;4995026;28;20213;-73
2023/08/28 10:43:48;;;;;;;2.83;1.00;;;22.50;99.90;;;;;;4997358;28;20209;-73
2023/08/28 10:46:14;;;;;;;3.30;1.83;;;22.50;99.90;;;;;;5004027;28;20173;-75
2023/08/28 10:48:40;;;;;;;1.70;1.20;;;22.90;99.90;;;;;;5002062;28;20174;-72
2023/08/28 10:51:11;;;;;;;1.67;1.10;;;23.10;99.90;;;;;;5000033;28;20220;-73
2023/08/28 10:53:38;;;;;;;1.70;1.20;;;23.30;99.90;;;;;;5002078;28;20208;-73
2023/08/28 10:56:06;;;;;;;2.47;0.90;;;23.50;99.90;;;;;;5000914;28;20706;-75
2023/08/28 10:58:38;;;;;;;2.75;1.42;;;23.70;99.90;;;;;;4998477;28;20810;-74
2023/08/28 11:01:14;;;;;;;3.40;1.40;;;23.90;99.90;;;;;;4986378;28;20204;-74
2023/08/28 11:03:52;;;;;;;1.33;0.90;;;24.00;99.90;;;;;;4998295;28;20578;-72
2023/08/28 11:06:43;;;;;;;1.83;1.23;;;23.90;99.90;;;;;;5000012;28;20241;-73
2023/08/28 11:09:30;;;;;;;2.40;1.20;;;24.00;99.90;;;;;;5005373;28;20244;-76
2023/08/28 11:12:01;;;;;;;2.45;1.65;;;24.00;99.90;;;;;;4981066;28;20225;-77
2023/08/28 11:14:31;;;;;;;2.67;1.50;;;23.70;99.90;;;;;;5006286;28;20327;-72
2023/08/28 11:17:09;;;;;;;3.33;1.45;;;23.60;99.90;;;;;;5007045;28;20201;-75
2023/08/28 11:19:59;;;;;;;8.18;4.25;;;23.50;99.90;;;;;;5002874;28;20300;-76
2023/08/28 11:22:28;;;;;;;3.95;2.40;;;23.50;99.90;;;;;;5005349;28;20559;-73
2023/08/28 11:24:54;;;;;;;3.80;1.63;;;23.40;99.90;;;;;;4985624;28;20185;-76
2023/08/28 11:27:45;;;;;;;1.83;0.90;;;23.20;99.90;;;;;;5008160;28;20204;-74
2023/08/28 11:30:13;;;;;;;2.20;1.48;;;23.20;99.90;;;;;;4988143;28;20228;-76
2023/08/28 11:32:40;;;;;;;2.75;1.10;;;23.10;99.90;;;;;;5005806;28;20568;-76
2023/08/28 11:35:13;;;;;;;2.55;1.60;;;22.60;99.90;;;;;;4985390;28;20221;-76
2023/08/28 11:37:47;;;;;;;2.47;1.30;;;22.40;99.90;;;;;;5003699;28;20259;-75
2023/08/28 11:40:18;;;;;;;2.08;1.27;;;22.40;99.90;;;;;;5003128;28;20199;-75
2023/08/28 11:42:49;;;;;;;1.10;1.00;;;22.40;99.90;;;;;;4981862;28;20288;-72
2023/08/28 11:45:22;;;;;;;2.90;1.50;;;22.50;99.90;;;;;;4988162;28;20300;-73
2023/08/28 11:47:49;;;;;;;1.55;1.20;;;22.60;99.90;;;;;;5004770;28;20355;-74
2023/08/28 11:50:16;;;;;;;7.10;1.90;;;22.60;99.90;;;;;;5009519;28;20209;-74
2023/08/28 11:52:46;;;;;;;9.65;1.90;;;22.80;99.90;;;;;;5000065;28;20213;-75
2023/08/28 11:55:12;;;;;;;8.48;1.15;;;22.90;99.90;;;;;;4990477;28;20193;-75
2023/08/28 11:57:38;;;;;;;4.50;1.83;;;22.90;99.90;;;;;;5003248;28;20708;-75
2023/08/28 12:00:09;;;;;;;6.00;3.70;;;22.80;99.90;;;;;;5006046;28;20205;-75
2023/08/28 12:02:35;;;;;;;4.50;1.52;;;22.80;99.90;;;;;;4988956;28;20274;-76
2023/08/28 12:05:00;;;;;;;5.00;1.58;;;22.80;99.90;;;;;;5004762;28;20680;-75
2023/08/28 12:07:27;;;;;;;4.82;2.05;;;22.80;99.90;;;;;;5007299;28;20209;-75
2023/08/28 12:09:54;;;;;;;3.15;1.15;;;22.80;99.90;;;;;;4985798;28;20181;-74
2023/08/28 12:12:21;;;;;;;4.55;1.38;;;22.80;99.90;;;;;;4989319;28;20232;-79
2023/08/28 12:14:48;;;;;;;8.98;4.45;;;22.70;99.90;;;;;;5003897;28;20241;-73
2023/08/28 12:17:14;;;;;;;5.45;1.77;;;22.70;99.90;;;;;;4996942;28;20679;-76
2023/08/28 12:19:41;;;;;;;8.52;2.97;;;23.00;99.90;;;;;;5003885;28;20209;-75
2023/08/28 12:22:08;;;;;;;3.38;1.20;;;23.20;99.90;;;;;;4991924;28;20211;-77
2023/08/28 12:24:38;;;;;;;2.67;0.90;;;23.40;99.90;;;;;;4992627;28;20173;-76
2023/08/28 12:27:04;;;;;;;1.85;1.10;;;23.20;99.90;;;;;;5013565;28;20212;-76
2023/08/28 12:29:30;;;;;;;3.10;0.98;;;23.30;99.90;;;;;;5007804;28;20299;-77
2023/08/28 12:31:56;;;;;;;1.65;1.08;;;23.20;99.90;;;;;;4991025;28;20242;-76
2023/08/28 12:34:28;;;;;;;2.33;1.08;;;23.30;99.90;;;;;;5009349;28;20692;-75
2023/08/28 12:37:06;;;;;;;3.53;1.27;;;23.30;99.90;;;;;;5009141;28;20208;-75
2023/08/28 12:39:32;;;;;;;3.17;0.95;;;23.20;99.90;;;;;;5008514;28;20212;-76
2023/08/28 12:41:58;;;;;;;3.20;1.35;;;23.40;99.90;;;;;;4984415;28;20692;-75
2023/08/28 12:44:24;;;;;;;3.50;1.15;;;23.40;99.90;;;;;;5013497;28;20263;-75
2023/08/28 12:46:50;;;;;;;2.67;1.38;;;23.40;99.90;;;;;;5013164;28;20288;-73
2023/08/28 12:49:26;;;;;;;1.38;0.95;;;23.20;99.90;;;;;;4994089;28;20189;-74